Time;durP1;ratioP1;P1;durP2;ratioP2;P2;SDS_P1;SDS_P2;PMS_P1;PMS_P2;Temp;Humidity;BMP_temperature;BMP_pressure;BME280_temperature;BME280_humidity;BME280_pressure;Samples;Min_cycle;Max_cycle;Signal;HPM_P1;HPM_P2
2022/06/05 00:01:42;;;;;;;17.23;12.57;;;;;;;22.74;71.55;100499.09;4937370;28;20042;-73
2022/06/05 00:04:50;;;;;;;20.63;13.07;;;;;;;22.81;70.59;100497.00;4910176;29;20063;-73
2022/06/05 00:07:22;;;;;;;15.27;12.65;;;;;;;22.34;70.82;100433.34;4912147;29;20079;-73
2022/06/05 00:10:01;;;;;;;21.37;12.80;;;;;;;22.39;71.84;100428.63;4940688;28;20043;-73
2022/06/05 00:12:55;;;;;;;17.88;13.90;;;;;;;22.69;72.81;100486.91;4911850;28;20053;-73
2022/06/05 00:15:23;;;;;;;22.70;13.38;;;;;;;22.32;74.00;100433.41;4911166;28;20677;-73
2022/06/05 00:17:48;;;;;;;17.55;14.00;;;;;;;22.49;74.36;100474.50;4912294;28;20054;-72
2022/06/05 00:20:14;;;;;;;18.55;12.18;;;;;;;22.60;73.35;100485.53;4909232;28;20048;-73
2022/06/05 00:22:40;;;;;;;17.98;12.60;;;;;;;22.23;74.75;100436.50;4913181;28;20420;-72
2022/06/05 00:25:08;;;;;;;18.83;12.73;;;;;;;22.15;73.25;100422.63;4907253;29;20040;-73
2022/06/05 00:27:33;;;;;;;17.08;12.40;;;;;;;22.30;72.60;100453.13;4909858;28;20151;-73
2022/06/05 00:30:26;;;;;;;20.63;13.13;;;;;;;22.19;73.64;100436.69;4937607;28;20134;-74
2022/06/05 00:33:02;;;;;;;19.85;13.23;;;;;;;22.50;72.34;100482.47;4945210;28;20048;-72
2022/06/05 00:35:33;;;;;;;20.60;12.88;;;;;;;22.59;72.55;100480.25;4911662;28;20050;-73
2022/06/05 00:38:44;;;;;;;14.60;11.88;;;;;;;22.20;70.64;100403.72;4908107;29;20139;-73
2022/06/05 00:41:55;;;;;;;16.40;11.88;;;;;;;22.21;71.63;100427.69;4897843;29;20143;-73
2022/06/05 00:44:28;;;;;;;16.23;12.32;;;;;;;22.10;71.84;100409.50;4908909;28;20930;-73
2022/06/05 00:46:54;;;;;;;13.90;11.90;;;;;;;22.45;72.26;100470.22;4911183;29;20048;-72
2022/06/05 00:49:23;;;;;;;22.08;14.85;;;;;;;21.85;73.61;100395.56;4947264;28;21142;-72
2022/06/05 00:51:49;;;;;;;15.80;10.82;;;;;;;22.20;74.84;100466.03;4914568;29;20050;-73
2022/06/05 00:54:14;;;;;;;19.17;13.45;;;;;;;22.08;74.96;100464.81;4916000;28;20130;-72
2022/06/05 00:56:40;;;;;;;16.55;11.73;;;;;;;22.30;71.05;100478.06;4944081;28;20499;-73
2022/06/05 00:59:08;;;;;;;21.88;12.73;;;;;;;22.52;71.16;100501.97;4945964;28;20130;-73
2022/06/05 01:01:34;;;;;;;16.10;12.18;;;;;;;22.41;72.52;100476.69;4951238;28;20058;-73
2022/06/05 01:04:01;;;;;;;20.10;13.25;;;;;;;21.96;73.17;100406.63;4957089;28;20054;-73
2022/06/05 01:06:28;;;;;;;14.63;10.45;;;;;;;22.49;73.18;100455.78;4943973;28;20110;-74
2022/06/05 01:08:54;;;;;;;15.80;11.93;;;;;;;22.59;67.59;100457.03;4944986;28;20223;-74
2022/06/05 01:11:25;;;;;;;12.23;10.20;;;;;;;22.02;67.31;100358.19;4944921;28;20051;-74
2022/06/05 01:13:53;;;;;;;25.67;12.45;;;;;;;22.70;69.34;100464.56;4940186;28;20498;-73
2022/06/05 01:16:30;;;;;;;26.23;11.95;;;;;;;22.54;71.54;100453.75;4949011;28;20033;-73
2022/06/05 01:19:28;;;;;;;20.65;11.80;;;;;;;22.54;72.15;100451.91;4948193;28;20142;-73
2022/06/05 01:22:11;;;;;;;14.50;10.68;;;;;;;22.18;67.90;100382.38;4949000;28;20138;-73
2022/06/05 01:25:08;;;;;;;11.48;9.02;;;;;;;22.23;67.93;100409.78;4948984;28;20129;-73
2022/06/05 01:27:39;;;;;;;18.50;10.55;;;;;;;22.60;68.54;100453.44;4945431;28;20058;-73
2022/06/05 01:30:20;;;;;;;14.20;10.15;;;;;;;22.16;67.89;100407.47;4948355;28;20042;-73
2022/06/05 01:33:09;;;;;;;12.45;8.55;;;;;;;22.59;67.16;100465.06;4954106;28;20073;-73
2022/06/05 01:35:57;;;;;;;11.32;9.52;;;;;;;22.59;66.97;100461.53;4955878;28;20145;-73
2022/06/05 01:38:36;;;;;;;11.68;8.70;;;;;;;22.49;67.57;100459.31;4949788;28;20051;-73
2022/06/05 01:41:09;;;;;;;14.52;9.05;;;;;;;22.36;70.16;100463.53;4953593;28;20051;-73
2022/06/05 01:43:39;;;;;;;18.80;11.45;;;;;;;22.29;71.60;100459.44;4946620;28;20054;-74
2022/06/05 01:46:17;;;;;;;18.98;10.13;;;;;;;22.27;70.86;100478.22;4949179;28;20539;-73
2022/06/05 01:48:50;;;;;;;15.77;10.18;;;;;;;22.21;69.12;100440.22;4950419;28;20054;-72
2022/06/05 01:51:23;;;;;;;15.00;9.00;;;;;;;22.03;68.53;100405.38;4950145;28;20138;-73
2022/06/05 01:53:52;;;;;;;16.98;9.80;;;;;;;22.30;68.21;100456.66;4933030;28;20131;-73
2022/06/05 01:56:36;;;;;;;16.73;8.60;;;;;;;22.38;68.01;100460.78;4911859;29;20102;-73
2022/06/05 01:59:16;;;;;;;12.20;8.65;;;;;;;22.41;67.69;100456.16;4907321;29;20060;-73
2022/06/05 02:01:47;;;;;;;10.20;8.65;;;;;;;22.33;67.40;100437.78;4913476;28;20052;-74
2022/06/05 02:04:18;;;;;;;14.75;10.15;;;;;;;22.37;67.79;100448.38;4915470;29;20040;-73
2022/06/05 02:06:59;;;;;;;13.38;9.10;;;;;;;22.33;66.77;100442.28;4912917;29;20048;-72
2022/06/05 02:09:36;;;;;;;11.70;8.52;;;;;;;22.03;66.29;100392.03;4904845;28;20572;-73
2022/06/05 02:12:05;;;;;;;13.50;7.68;;;;;;;22.48;66.81;100457.59;4912397;28;20108;-73
2022/06/05 02:14:31;;;;;;;18.13;8.98;;;;;;;22.00;67.57;100396.63;4907957;29;20051;-73
2022/06/05 02:16:58;;;;;;;15.07;8.57;;;;;;;22.41;67.67;100463.31;4907930;28;20481;-73
2022/06/05 02:19:25;;;;;;;20.60;10.18;;;;;;;21.98;67.45;100399.38;4916718;28;20039;-73
2022/06/05 02:21:56;;;;;;;14.50;8.85;;;;;;;22.27;67.39;100458.63;4913539;29;20035;-72
2022/06/05 02:24:22;;;;;;;10.60;8.40;;;;;;;22.39;66.36;100454.50;4913775;29;20504;-72
2022/06/05 02:26:47;;;;;;;15.68;8.32;;;;;;;22.48;66.03;100470.97;4915194;29;20055;-74
2022/06/05 02:29:21;;;;;;;11.60;8.57;;;;;;;22.29;65.92;100428.22;4909475;28;20088;-73
2022/06/05 02:32:11;;;;;;;11.55;8.63;;;;;;;22.09;66.48;100396.19;4909976;29;20070;-71
2022/06/05 02:35:10;;;;;;;14.32;9.45;;;;;;;22.39;67.97;100455.38;4915255;28;20143;-73
2022/06/05 02:37:57;;;;;;;14.68;9.32;;;;;;;22.43;69.79;100453.38;4914199;28;20036;-73
2022/06/05 02:40:29;;;;;;;10.82;8.00;;;;;;;22.27;70.09;100447.94;4940828;28;20573;-73
2022/06/05 02:43:23;;;;;;;10.00;7.38;;;;;;;22.44;69.51;100452.47;4914004;29;20084;-73
2022/06/05 02:46:07;;;;;;;12.88;8.35;;;;;;;22.48;69.03;100444.22;4906098;29;20060;-73
2022/06/05 02:48:39;;;;;;;15.15;8.88;;;;;;;22.34;67.22;100411.94;4911414;29;20063;-73
2022/06/05 02:51:23;;;;;;;13.25;9.98;;;;;;;22.49;67.64;100445.94;4912952;29;20079;-73
2022/06/05 02:53:57;;;;;;;11.35;8.27;;;;;;;22.17;67.17;100394.00;4912248;29;20492;-72
2022/06/05 02:56:26;;;;;;;15.52;10.63;;;;;;;22.54;68.11;100446.56;4910274;29;20086;-73
2022/06/05 02:58:53;;;;;;;30.85;9.82;;;;;;;22.44;69.50;100426.59;4911782;29;20055;-73
2022/06/05 03:04:07;;;;;;;21.73;11.02;;;;;;;22.60;70.41;100436.53;4909082;29;20142;-72
2022/06/05 03:06:34;;;;;;;15.10;9.20;;;;;;;22.50;70.91;100439.66;4898915;29;20543;-73
2022/06/05 03:09:00;;;;;;;10.88;8.73;;;;;;;22.50;69.65;100430.75;4908472;29;20044;-73
2022/06/05 03:11:26;;;;;;;16.55;10.23;;;;;;;22.05;69.66;100349.16;4913662;29;21394;-74
2022/06/05 03:13:52;;;;;;;10.95;9.07;;;;;;;22.30;69.72;100395.19;4909811;29;20060;-74
2022/06/05 03:16:18;;;;;;;12.95;7.65;;;;;;;22.26;68.58;100379.34;4928401;29;20540;-74
2022/06/05 03:18:44;;;;;;;9.50;7.68;;;;;;;22.74;70.00;100444.75;4912800;29;20064;-73
2022/06/05 03:21:11;;;;;;;11.98;8.55;;;;;;;22.74;69.79;100452.78;4913202;29;20052;-73
2022/06/05 03:23:36;;;;;;;11.75;8.50;;;;;;;22.90;67.92;100447.53;4910416;29;20499;-73
2022/06/05 03:26:02;;;;;;;16.90;9.75;;;;;;;22.81;67.52;100438.13;4911553;29;20060;-74
2022/06/05 03:28:27;;;;;;;14.73;9.02;;;;;;;22.84;68.35;100445.16;4907688;29;20051;-74
2022/06/05 03:30:53;;;;;;;11.98;8.40;;;;;;;22.87;68.24;100431.59;4926900;28;20145;-74
2022/06/05 03:33:19;;;;;;;12.40;9.07;;;;;;;22.93;67.59;100442.00;4911238;29;20716;-74
2022/06/05 03:35:46;;;;;;;10.57;8.00;;;;;;;22.88;68.85;100438.69;4916326;28;20226;-74
2022/06/05 03:38:13;;;;;;;15.88;8.82;;;;;;;22.86;69.15;100424.53;4916823;29;20122;-72
2022/06/05 03:40:43;;;;;;;12.23;7.10;;;;;;;22.86;69.36;100424.53;4917709;29;20051;-73
2022/06/05 03:43:10;;;;;;;12.18;8.50;;;;;;;22.95;68.83;100432.94;4914521;29;20055;-73
2022/06/05 03:45:36;;;;;;;11.52;7.10;;;;;;;23.02;68.89;100438.88;4927457;28;20078;-73
2022/06/05 03:48:03;;;;;;;16.77;9.07;;;;;;;23.10;68.99;100442.03;4912282;29;20044;-74
2022/06/05 03:50:29;;;;;;;11.68;8.57;;;;;;;22.94;68.87;100424.97;4919942;28;20151;-73
2022/06/05 03:53:04;;;;;;;8.25;7.25;;;;;;;23.05;68.19;100437.88;4906911;29;22734;-73
2022/06/05 03:55:30;;;;;;;12.48;7.93;;;;;;;23.19;68.13;100448.72;4934697;28;20050;-73
2022/06/05 03:57:56;;;;;;;9.75;6.28;;;;;;;23.16;69.31;100446.22;4948509;28;20054;-73
2022/06/05 04:00:21;;;;;;;12.75;8.00;;;;;;;22.90;68.69;100404.69;4951940;28;20047;-73
2022/06/05 04:02:47;;;;;;;12.45;8.18;;;;;;;23.07;69.24;100436.84;4948360;28;20054;-73
2022/06/05 04:05:16;;;;;;;11.98;8.02;;;;;;;22.62;69.92;100365.13;4948892;28;20054;-73
2022/06/05 04:07:41;;;;;;;14.48;7.40;;;;;;;23.18;69.06;100430.94;4949046;28;20157;-74
2022/06/05 04:10:10;;;;;;;11.68;6.93;;;;;;;23.20;69.44;100422.81;4954180;28;20042;-73
2022/06/05 04:12:36;;;;;;;8.70;6.38;;;;;;;22.79;69.29;100361.56;4950820;28;20779;-74
2022/06/05 04:15:02;;;;;;;8.05;6.30;;;;;;;23.17;68.77;100418.47;4930091;28;20054;-74
2022/06/05 04:17:28;;;;;;;8.70;6.75;;;;;;;23.03;68.08;100397.78;4948591;28;20634;-74
2022/06/05 04:19:53;;;;;;;18.20;7.88;;;;;;;23.25;68.46;100427.00;4926928;28;20058;-74
2022/06/05 04:22:20;;;;;;;8.70;6.70;;;;;;;22.97;68.84;100366.84;4953320;28;20118;-74
2022/06/05 04:24:46;;;;;;;15.52;9.05;;;;;;;23.04;67.67;100363.84;4936737;28;20110;-74
2022/06/05 04:27:11;;;;;;;10.48;7.03;;;;;;;23.59;67.05;100426.03;4952337;28;20053;-74
2022/06/05 04:29:37;;;;;;;11.82;7.75;;;;;;;23.43;66.68;100425.13;4948549;28;20051;-74
2022/06/05 04:32:03;;;;;;;9.57;6.70;;;;;;;23.43;65.83;100397.50;4926829;28;20455;-74
2022/06/05 04:34:29;;;;;;;17.10;7.35;;;;;;;23.01;66.71;100348.81;4943038;28;20035;-74
2022/06/05 04:36:55;;;;;;;15.73;8.13;;;;;;;23.46;67.89;100422.31;4946266;28;20038;-74
2022/06/05 04:39:20;;;;;;;17.60;9.57;;;;;;;23.08;67.10;100366.28;4950454;28;20066;-74
2022/06/05 04:41:47;;;;;;;11.88;7.72;;;;;;;23.31;66.30;100415.94;4946805;28;20426;-74
2022/06/05 04:44:16;;;;;;;12.00;8.63;;;;;;;22.95;66.44;100344.63;4950442;28;20051;-73
2022/06/05 04:46:43;;;;;;;12.55;7.72;;;;;;;23.47;66.45;100420.50;4949773;28;20051;-73
2022/06/05 04:49:10;;;;;;;9.27;7.40;;;;;;;23.23;66.28;100369.13;4951111;28;20058;-73
2022/06/05 04:51:36;;;;;;;12.85;7.15;;;;;;;23.60;65.69;100425.09;4952468;28;20511;-73
2022/06/05 04:54:05;;;;;;;8.73;7.10;;;;;;;23.31;65.31;100362.38;4951119;28;20047;-73
2022/06/05 04:56:32;;;;;;;9.95;6.43;;;;;;;23.77;65.86;100437.63;4947723;28;20062;-73
2022/06/05 04:58:58;;;;;;;10.00;7.07;;;;;;;23.79;65.69;100414.28;4946538;28;20051;-73
2022/06/05 05:01:29;;;;;;;9.85;6.05;;;;;;;23.84;64.71;100418.53;4945373;28;20043;-73
2022/06/05 05:03:58;;;;;;;13.35;6.70;;;;;;;23.65;63.88;100349.84;4957339;28;20042;-74
2022/06/05 05:06:25;;;;;;;10.60;7.80;;;;;;;24.08;63.52;100411.78;4935948;28;20281;-74
2022/06/05 05:08:51;;;;;;;17.25;6.68;;;;;;;23.79;63.70;100357.16;4945757;28;20195;-74
2022/06/05 05:11:17;;;;;;;12.77;7.53;;;;;;;24.05;62.81;100377.13;4953919;28;20402;-72
2022/06/05 05:13:44;;;;;;;11.02;7.00;;;;;;;24.27;62.45;100349.06;4955861;28;20059;-72
2022/06/05 05:16:10;;;;;;;14.27;7.25;;;;;;;24.95;62.75;100416.59;4959424;28;20118;-73
2022/06/05 05:18:35;;;;;;;15.27;6.55;;;;;;;24.91;61.09;100403.47;4938793;28;21325;-73
2022/06/05 05:21:10;;;;;;;12.35;7.47;;;;;;;25.00;60.81;100413.66;4952976;28;20138;-73
2022/06/05 05:23:36;;;;;;;11.77;6.72;;;;;;;24.75;61.02;100357.91;4957657;28;20051;-73
2022/06/05 05:26:12;;;;;;;12.10;8.43;;;;;;;24.99;60.29;100361.78;4953455;28;20063;-73
2022/06/05 05:28:40;;;;;;;15.55;8.05;;;;;;;25.42;59.90;100431.69;4953757;28;20030;-72
2022/06/05 05:31:11;;;;;;;12.23;6.55;;;;;;;24.97;60.03;100373.56;4953435;28;20554;-72
2022/06/05 05:33:38;;;;;;;12.55;7.57;;;;;;;25.20;59.40;100369.53;4932226;28;20062;-73
2022/06/05 05:36:04;;;;;;;10.82;7.22;;;;;;;25.49;58.57;100375.75;4949115;28;20066;-73
2022/06/05 05:38:29;;;;;;;13.63;8.65;;;;;;;26.07;60.30;100433.91;4939236;28;20042;-72
2022/06/05 05:43:39;;;;;;;10.13;7.25;;;;;;;25.95;59.33;100423.09;4953162;28;20125;-73
2022/06/05 05:46:15;;;;;;;15.00;9.02;;;;;;;25.94;59.01;100371.13;4952266;28;20035;-74
2022/06/05 05:48:41;;;;;;;16.83;9.98;;;;;;;26.34;59.83;100433.09;4954728;28;20190;-74
2022/06/05 05:51:14;;;;;;;15.77;9.63;;;;;;;26.00;59.69;100357.28;4951803;28;20070;-74
2022/06/05 05:53:41;;;;;;;13.10;8.27;;;;;;;26.68;57.28;100420.97;4947523;28;20050;-74
2022/06/05 05:56:09;;;;;;;18.05;9.57;;;;;;;26.67;56.83;100421.09;4954119;28;20073;-74
2022/06/05 05:58:36;;;;;;;16.08;8.95;;;;;;;26.51;56.83;100378.16;4951378;28;20043;-73
2022/06/05 06:01:07;;;;;;;14.40;9.77;;;;;;;26.63;56.31;100376.50;4959910;28;20209;-73
2022/06/05 06:03:34;;;;;;;12.88;7.00;;;;;;;26.44;56.77;100347.25;4947320;28;20685;-72
2022/06/05 06:06:02;;;;;;;18.17;9.80;;;;;;;26.90;55.31;100416.81;4938763;28;20055;-72
2022/06/05 06:08:28;;;;;;;15.95;9.35;;;;;;;26.92;55.41;100423.81;4948038;28;20133;-72
2022/06/05 06:10:54;;;;;;;15.18;9.35;;;;;;;26.56;55.25;100364.41;4949704;28;20415;-73
2022/06/05 06:13:20;;;;;;;14.70;8.75;;;;;;;26.73;55.09;100359.59;4943290;28;20562;-73
2022/06/05 06:15:46;;;;;;;13.90;8.40;;;;;;;27.24;55.24;100410.00;4929569;28;20122;-73
2022/06/05 06:18:14;;;;;;;17.73;10.93;;;;;;;27.29;54.19;100418.63;4951896;28;21333;-73
2022/06/05 06:20:40;;;;;;;15.55;10.23;;;;;;;27.28;54.38;100425.00;4949872;28;20047;-74
2022/06/05 06:23:06;;;;;;;15.98;9.80;;;;;;;27.29;55.78;100417.78;4949915;28;20057;-74
2022/06/05 06:25:32;;;;;;;19.75;10.13;;;;;;;27.51;54.10;100428.78;4954066;28;20538;-73
2022/06/05 06:27:58;;;;;;;16.25;9.88;;;;;;;27.46;53.48;100420.13;4938845;28;20043;-74
2022/06/05 06:30:24;;;;;;;16.80;9.75;;;;;;;27.65;53.59;100414.31;4950064;28;20073;-73
2022/06/05 06:32:49;;;;;;;14.98;10.38;;;;;;;27.11;55.15;100356.09;4950851;28;20110;-73
2022/06/05 06:35:15;;;;;;;14.60;8.50;;;;;;;27.18;53.41;100340.34;4951698;28;20167;-73
2022/06/05 06:37:42;;;;;;;17.90;9.50;;;;;;;27.60;54.30;100408.38;4949793;28;20047;-73
2022/06/05 06:40:08;;;;;;;14.98;9.55;;;;;;;27.77;53.87;100405.34;4953571;28;20034;-72
2022/06/05 06:42:33;;;;;;;20.10;8.90;;;;;;;27.69;52.19;100385.28;4950747;28;20086;-73
2022/06/05 06:44:59;;;;;;;18.70;10.85;;;;;;;27.59;52.05;100379.69;4947942;28;20046;-72
2022/06/05 06:47:24;;;;;;;20.20;11.55;;;;;;;27.89;53.45;100400.94;4957118;28;20561;-73
2022/06/05 06:49:51;;;;;;;16.52;8.25;;;;;;;27.88;55.07;100406.41;4953803;28;20141;-73
2022/06/05 06:52:17;;;;;;;8.77;6.78;;;;;;;27.73;53.15;100405.66;4956504;28;20062;-73
2022/06/05 06:54:42;;;;;;;14.07;7.25;;;;;;;27.48;54.05;100349.94;4928828;28;20803;-73
2022/06/05 06:57:09;;;;;;;15.77;8.02;;;;;;;27.78;53.60;100420.53;4940607;28;20114;-73
2022/06/05 06:59:36;;;;;;;7.82;6.30;;;;;;;27.40;52.70;100363.97;4955097;28;20076;-73
2022/06/05 07:02:01;;;;;;;15.05;8.65;;;;;;;27.69;52.77;100401.47;4947052;28;20055;-73
2022/06/05 07:04:28;;;;;;;7.38;6.53;;;;;;;27.91;53.29;100400.78;4954182;28;20042;-73
2022/06/05 07:06:55;;;;;;;14.10;7.20;;;;;;;27.96;54.33;100415.69;4957666;28;20050;-74
2022/06/05 07:09:21;;;;;;;10.98;8.70;;;;;;;27.88;54.14;100411.81;4950201;28;20039;-74
2022/06/05 07:11:49;;;;;;;14.20;9.15;;;;;;;27.71;53.66;100364.47;4950942;28;20054;-73
2022/06/05 07:14:18;;;;;;;17.30;10.65;;;;;;;28.22;55.54;100414.75;4953347;28;20055;-74
2022/06/05 07:16:45;;;;;;;15.05;10.48;;;;;;;27.84;54.56;100359.06;4951994;28;20145;-73
2022/06/05 07:19:11;;;;;;;12.10;9.45;;;;;;;28.36;54.17;100409.19;4953236;28;20044;-74
2022/06/05 07:21:37;;;;;;;7.22;6.45;;;;;;;28.22;53.90;100402.13;4955141;28;20639;-74
2022/06/05 07:24:03;;;;;;;14.18;9.48;;;;;;;27.96;53.27;100350.09;4952765;28;20043;-73
2022/06/05 07:26:32;;;;;;;14.40;8.73;;;;;;;28.02;54.53;100373.03;4952340;28;20054;-73
2022/06/05 07:28:58;;;;;;;11.30;7.40;;;;;;;27.88;53.33;100331.75;4934850;28;20054;-73
2022/06/05 07:31:28;;;;;;;11.35;7.70;;;;;;;28.06;52.63;100334.94;4953336;28;20047;-73
2022/06/05 07:33:55;;;;;;;8.10;7.22;;;;;;;28.55;52.97;100390.66;4962000;28;20031;-73
2022/06/05 07:36:21;;;;;;;17.50;9.73;;;;;;;28.52;53.03;100357.66;4930596;28;20080;-73
2022/06/05 07:38:47;;;;;;;11.00;8.07;;;;;;;28.45;52.62;100341.03;4925451;28;20495;-73
2022/06/05 07:41:20;;;;;;;10.05;7.70;;;;;;;28.44;52.44;100338.41;4947564;28;20154;-73
2022/06/05 07:43:47;;;;;;;14.30;7.53;;;;;;;28.40;54.74;100337.78;4948315;28;20058;-74
2022/06/05 07:46:13;;;;;;;14.23;6.97;;;;;;;28.87;52.03;100384.66;4949716;28;20031;-73
2022/06/05 07:48:39;;;;;;;10.68;7.35;;;;;;;28.97;51.25;100382.09;4953259;28;20039;-72
2022/06/05 07:56:41;;;;;;;8.25;6.75;;;;;;;28.53;52.37;100341.31;4943073;28;20099;-75
2022/06/05 07:59:07;;;;;;;9.18;7.68;;;;;;;28.81;53.48;100394.06;4926099;28;20499;-73
2022/06/05 08:01:34;;;;;;;9.85;7.05;;;;;;;28.45;53.22;100351.81;4928208;28;20138;-71
2022/06/05 08:03:59;;;;;;;14.77;8.48;;;;;;;28.65;52.84;100396.22;4935104;28;20035;-72
2022/06/05 08:06:25;;;;;;;12.30;8.38;;;;;;;28.86;53.86;100392.88;4931092;28;20488;-74
2022/06/05 08:08:51;;;;;;;11.27;9.13;;;;;;;28.80;52.86;100381.56;4924097;28;20051;-74
2022/06/05 08:11:17;;;;;;;12.38;9.15;;;;;;;28.83;53.64;100393.97;4920674;28;20071;-75
2022/06/05 08:13:42;;;;;;;14.55;8.32;;;;;;;29.13;53.64;100387.19;4929301;28;20051;-75
2022/06/05 08:16:10;;;;;;;12.20;8.30;;;;;;;29.16;53.32;100382.41;4921153;29;20080;-74
2022/06/05 08:18:35;;;;;;;15.10;7.60;;;;;;;28.94;52.33;100412.03;4923867;28;20130;-73
2022/06/05 08:21:01;;;;;;;9.35;6.82;;;;;;;28.74;53.26;100395.53;4945386;28;20320;-73
2022/06/05 08:23:26;;;;;;;14.68;10.30;;;;;;;29.45;53.95;100396.34;4930141;28;20048;-73
2022/06/05 08:25:52;;;;;;;19.23;10.75;;;;;;;29.45;52.44;100390.03;4924832;28;20065;-74
2022/06/05 08:28:18;;;;;;;16.48;9.10;;;;;;;29.53;50.39;100401.13;4924003;29;20040;-73
2022/06/05 08:30:43;;;;;;;13.70;8.55;;;;;;;29.29;51.05;100349.00;4921888;29;20052;-73
2022/06/05 08:33:10;;;;;;;12.63;9.35;;;;;;;29.88;50.54;100403.72;4925334;28;20515;-73
2022/06/05 08:35:36;;;;;;;18.88;11.38;;;;;;;29.83;51.12;100376.19;4925141;28;20591;-72
2022/06/05 08:44:10;;;;;;;13.63;7.75;;;;;;;29.99;51.55;100397.44;4923673;29;20070;-73
2022/06/05 08:46:45;;;;;;;18.42;10.18;;;;;;;30.34;50.21;100406.38;4931556;28;20050;-72
2022/06/05 08:49:14;;;;;;;12.15;7.35;;;;;;;30.53;47.61;100375.88;4929073;28;20500;-72
2022/06/05 08:51:51;;;;;;;10.38;8.18;;;;;;;29.86;48.43;100350.72;4919238;28;20067;-73
2022/06/05 08:54:30;;;;;;;13.35;7.20;;;;;;;29.60;50.54;100388.81;4923116;28;20083;-71
2022/06/05 08:57:03;;;;;;;10.50;7.65;;;;;;;29.90;50.03;100391.91;4946340;28;20107;-73
2022/06/05 08:59:46;;;;;;;13.38;8.90;;;;;;;30.34;51.05;100392.81;4948879;28;20070;-71
2022/06/05 09:02:39;;;;;;;9.77;8.18;;;;;;;29.93;50.44;100329.44;4950165;28;20047;-73
2022/06/05 09:05:18;;;;;;;11.13;8.98;;;;;;;30.50;48.94;100385.13;4951367;28;20156;-74
2022/06/05 09:07:47;;;;;;;18.58;11.57;;;;;;;30.64;47.44;100330.66;4942039;28;20057;-75
2022/06/05 09:10:15;;;;;;;12.63;9.77;;;;;;;29.88;48.48;100330.66;4946507;28;20046;-74
2022/06/05 09:12:56;;;;;;;9.18;8.07;;;;;;;30.79;49.37;100374.56;4944290;28;20106;-74
2022/06/05 09:15:29;;;;;;;16.98;10.35;;;;;;;31.11;46.83;100366.34;4950661;28;20074;-75
2022/06/05 09:17:59;;;;;;;12.15;8.57;;;;;;;31.25;45.57;100307.34;4948640;28;20043;-74
2022/06/05 09:20:56;;;;;;;18.55;10.38;;;;;;;31.50;46.87;100306.91;4946061;28;20050;-72
2022/06/05 09:24:07;;;;;;;10.48;7.93;;;;;;;30.15;48.42;100355.56;4936865;28;20491;-74
2022/06/05 09:26:44;;;;;;;13.05;10.80;;;;;;;30.89;47.58;100325.88;4924154;28;20050;-74
2022/06/05 09:29:22;;;;;;;11.05;8.70;;;;;;;31.97;47.43;100347.06;4944782;28;20165;-74
2022/06/05 09:32:16;;;;;;;13.13;7.65;;;;;;;32.08;45.19;100346.09;4944556;28;20055;-73
2022/06/05 09:34:50;;;;;;;10.98;8.52;;;;;;;31.36;47.23;100344.38;4938525;28;20682;-74
2022/06/05 09:37:37;;;;;;;15.65;9.82;;;;;;;30.46;49.29;100345.75;4951035;28;20043;-72
2022/06/05 09:40:36;;;;;;;14.20;9.05;;;;;;;30.26;49.77;100351.00;4941513;28;20080;-73
2022/06/05 09:43:34;;;;;;;13.25;9.55;;;;;;;30.58;46.59;100354.69;4934598;28;20055;-73
2022/06/05 09:46:09;;;;;;;12.52;8.65;;;;;;;31.34;45.87;100350.78;4938887;28;20051;-73
2022/06/05 09:48:43;;;;;;;17.00;9.98;;;;;;;31.72;46.13;100330.25;4951495;28;20066;-73
2022/06/05 09:51:14;;;;;;;29.67;11.13;;;;;;;30.93;45.66;100340.88;4952712;28;20710;-72
2022/06/05 09:53:45;;;;;;;15.07;10.25;;;;;;;31.35;44.56;100332.66;4953739;28;20055;-73
2022/06/05 09:56:26;;;;;;;17.23;11.60;;;;;;;31.37;43.06;100337.94;4952456;28;20051;-73
2022/06/05 09:59:00;;;;;;;11.88;9.38;;;;;;;30.98;44.86;100273.56;4939842;28;20079;-72
2022/06/05 10:01:50;;;;;;;17.85;9.40;;;;;;;30.28;46.53;100275.09;4957642;28;20039;-74
2022/06/05 10:04:19;;;;;;;14.63;7.90;;;;;;;29.96;47.50;100273.19;4953969;28;20058;-74
2022/06/05 10:06:53;;;;;;;15.45;10.18;;;;;;;30.81;48.30;100321.09;4958039;28;20850;-74
2022/06/05 10:09:24;;;;;;;24.88;12.38;;;;;;;30.95;45.22;100271.09;4956691;28;20101;-73
2022/06/05 10:12:04;;;;;;;20.45;11.27;;;;;;;30.98;45.77;100321.50;4955616;28;20047;-73
2022/06/05 10:15:01;;;;;;;22.98;11.60;;;;;;;30.82;45.05;100268.59;4955947;28;20529;-73
2022/06/05 10:17:41;;;;;;;35.10;18.63;;;;;;;31.50;44.19;100262.66;4955509;28;20078;-73
2022/06/05 10:20:28;;;;;;;27.83;14.45;;;;;;;32.04;44.78;100312.94;4940374;28;20054;-74
2022/06/05 10:23:09;;;;;;;21.00;14.30;;;;;;;31.67;44.35;100323.53;4954684;28;20078;-74
2022/06/05 10:26:13;;;;;;;27.27;13.25;;;;;;;30.38;42.25;100265.19;4957810;28;20042;-74
2022/06/05 10:28:42;;;;;;;22.73;11.48;;;;;;;30.86;41.69;100177.97;4937805;28;20129;-74
2022/06/05 10:31:12;;;;;;;36.55;16.33;;;;;;;31.42;41.16;100308.59;4953145;28;20035;-72
2022/06/05 10:33:53;;;;;;;38.05;15.90;;;;;;;31.48;40.73;100270.09;4953569;28;20051;-71
2022/06/05 10:36:43;;;;;;;24.70;11.98;;;;;;;31.38;40.75;100228.50;4953027;28;20066;-73
2022/06/05 10:39:31;;;;;;;17.77;9.93;;;;;;;31.28;41.72;100288.09;4945473;28;20043;-73
2022/06/05 10:41:57;;;;;;;30.13;14.20;;;;;;;31.31;40.96;100307.69;4958377;28;20088;-73
2022/06/05 10:44:35;;;;;;;26.00;15.48;;;;;;;32.09;39.09;100307.91;4957251;28;20059;-73
2022/06/05 10:47:12;;;;;;;25.05;13.55;;;;;;;32.35;38.70;100225.88;4928704;28;20059;-75
2022/06/05 10:50:05;;;;;;;34.45;17.40;;;;;;;32.66;38.79;100239.28;4954922;28;20032;-74
2022/06/05 10:52:34;;;;;;;44.22;20.13;;;;;;;32.35;37.94;100221.28;4940527;28;20766;-73
2022/06/05 10:55:25;;;;;;;32.00;14.90;;;;;;;32.25;38.34;100279.34;4954825;28;20484;-72
2022/06/05 10:58:22;;;;;;;47.88;19.85;;;;;;;32.61;35.89;100228.84;4957272;28;20107;-73
2022/06/05 11:01:09;;;;;;;54.03;20.13;;;;;;;33.16;38.44;100272.50;4954416;28;20054;-74
2022/06/05 11:03:44;;;;;;;64.72;23.17;;;;;;;33.18;37.21;100272.34;4956725;28;20136;-74
2022/06/05 11:06:28;;;;;;;88.07;35.30;;;;;;;33.48;35.35;100275.75;4945244;28;20145;-73
2022/06/05 11:09:41;;;;;;;95.55;31.70;;;;;;;33.15;37.58;100270.75;4947744;28;20166;-74
2022/06/05 11:15:34;;;;;;;116.78;38.20;;;;;;;32.99;37.58;100263.22;4943988;28;20049;-74
2022/06/05 11:18:20;;;;;;;53.17;22.05;;;;;;;32.86;36.69;100256.41;4946833;28;20054;-74
2022/06/05 11:20:59;;;;;;;71.95;24.33;;;;;;;32.97;36.07;100254.34;4956339;28;20195;-74
2022/06/05 11:23:38;;;;;;;42.35;20.65;;;;;;;32.97;35.85;100201.84;4957504;28;20043;-74
2022/06/05 11:26:13;;;;;;;67.03;27.58;;;;;;;32.40;36.36;100207.28;4938631;28;20109;-75
2022/06/05 11:29:09;;;;;;;45.30;17.20;;;;;;;33.42;37.49;100247.31;4948291;28;20035;-78
2022/06/05 11:31:49;;;;;;;50.10;19.38;;;;;;;32.55;36.27;100197.72;4949318;28;20075;-73
2022/06/05 11:34:17;;;;;;;35.28;19.15;;;;;;;32.41;38.07;100254.34;4952055;28;20093;-74
2022/06/05 11:37:09;;;;;;;42.22;18.95;;;;;;;32.27;38.58;100233.91;4946247;28;20107;-71
2022/06/05 11:40:01;;;;;;;45.35;21.75;;;;;;;32.66;37.80;100196.66;4941920;28;20105;-73
2022/06/05 11:42:46;;;;;;;28.58;14.15;;;;;;;32.18;37.89;100262.78;4926185;28;20125;-73
2022/06/05 11:45:17;;;;;;;45.72;20.38;;;;;;;32.71;38.54;100240.56;4951587;28;20145;-73
2022/06/05 11:47:54;;;;;;;60.60;24.50;;;;;;;32.73;38.60;100177.91;4941175;28;20547;-73
2022/06/05 11:50:40;;;;;;;51.10;21.92;;;;;;;32.04;37.86;100171.75;4952587;28;20049;-73
2022/06/05 11:53:28;;;;;;;46.17;16.67;;;;;;;32.08;39.01;100237.50;4921720;28;20060;-72
2022/06/05 11:56:02;;;;;;;55.17;25.20;;;;;;;32.34;37.43;100244.03;4949679;28;20039;-72
2022/06/05 11:58:28;;;;;;;16.63;9.57;;;;;;;32.24;37.19;100228.75;4923324;28;20074;-72
2022/06/05 12:01:11;;;;;;;21.23;8.75;;;;;;;31.57;36.71;100231.28;4945625;28;20031;-72